PWSweather.com
Personal Weather Stations
Station Observations
KTXPLANO60
Highlands Of Russell Park, Plano, TX 75025

Highlands Of Russell ParkPlano, TX 75025

Lat: 33.10431671, Lon: -96.75176239

Elevation: 761

Station Type: Davis Wireless VP2 Plus

http://www.planoweather.com

Latest ConditionsUpdated 11:50:06 AM CDT Monday, Apr 27, 2015
Currently Today's Max Today's Min Today's Average
Temperature 66.2°F19.0°C 72.8°F22.7°C 59.4°F15.2°C 65.3°F18.5°C
Dew Point 57.7°F14.3°C 64.8°F18.2°C 56.0°F13.3°C 59.2°F15.1°C
Winds 9.7 mph E15.6 kmh E 15.6 mph NE25.1 kmh NE - 9.2 mph 14.8 kmh
Wind Gusts 16.0 mph25.7 kmh 28.0 mph45.1 kmh - -
Humidity 74% 90% 70% 81%
Pressure 29.69 in1005.4 mb 29.69 in1005.4 mb 29.59 in1002.0 mb -
Precipitation - 0.06 in1.5 mm - -
Hour Temp Dew Point Humidity Winds Wind Gusts Pressure Precip Precip Rate Daily Precip Total
11:50 AM 66.2°F19.0°C 57.7°F14.3°C 74% 9.7 mph E15.6 kmh E 16.0 mph25.7 kmh 29.69 in1005.4 mb - 0.00 in0.0 mm 0.06 in1.5 mm
11:40 AM 66.4°F19.1°C 57.5°F14.2°C 73% 10.6 mph E17.1 kmh E 19.0 mph30.6 kmh 29.68 in1005.1 mb - 0.00 in0.0 mm 0.06 in1.5 mm
11:30 AM 67.8°F19.9°C 58.4°F14.7°C 72% 7.7 mph E12.4 kmh E 11.0 mph17.7 kmh 29.68 in1005.1 mb - 0.00 in0.0 mm 0.06 in1.5 mm
11:20 AM 66.8°F19.3°C 58.6°F14.8°C 75% 6.3 mph ESE10.1 kmh ESE 17.0 mph27.4 kmh 29.67 in1004.7 mb - 0.00 in0.0 mm 0.06 in1.5 mm
11:10 AM 64.7°F18.2°C 57.7°F14.3°C 78% 14.3 mph E23.0 kmh E 28.0 mph45.1 kmh 29.66 in1004.4 mb - 0.00 in0.0 mm 0.06 in1.5 mm
11:00 AM 64.7°F18.2°C 57.7°F14.3°C 78% 14.1 mph E22.7 kmh E 19.0 mph30.6 kmh 29.66 in1004.4 mb - 0.00 in0.0 mm 0.06 in1.5 mm
10:50 AM 64.5°F18.1°C 57.8°F14.3°C 79% 9.8 mph E15.8 kmh E 13.0 mph20.9 kmh 29.66 in1004.4 mb - 0.00 in0.0 mm 0.06 in1.5 mm
10:40 AM 62.9°F17.2°C 57.3°F14.1°C 82% 12.1 mph E19.5 kmh E 21.0 mph33.8 kmh 29.67 in1004.7 mb - 0.00 in0.0 mm 0.06 in1.5 mm
10:30 AM 62.2°F16.8°C 57.3°F14.1°C 84% 11.9 mph E19.2 kmh E 18.0 mph29.0 kmh 29.67 in1004.7 mb - 0.00 in0.0 mm 0.06 in1.5 mm
10:20 AM 61.6°F16.4°C 57.0°F13.9°C 85% 13.0 mph ENE20.9 kmh ENE 17.0 mph27.4 kmh 29.68 in1005.1 mb - 0.00 in0.0 mm 0.06 in1.5 mm
10:10 AM 61.0°F16.1°C 56.8°F13.8°C 86% 9.5 mph NE15.3 kmh NE 21.0 mph33.8 kmh 29.68 in1005.1 mb - 0.00 in0.0 mm 0.06 in1.5 mm
10:00 AM 60.8°F16.0°C 56.6°F13.7°C 86% 10.8 mph E17.4 kmh E 21.0 mph33.8 kmh 29.68 in1005.1 mb - 0.00 in0.0 mm 0.06 in1.5 mm
09:50 AM 60.7°F15.9°C 56.8°F13.8°C 87% 13.0 mph ENE20.9 kmh ENE 18.0 mph29.0 kmh 29.68 in1005.1 mb - 0.00 in0.0 mm 0.06 in1.5 mm
09:40 AM 60.4°F15.8°C 56.5°F13.6°C 87% 10.7 mph E17.2 kmh E 17.0 mph27.4 kmh 29.68 in1005.1 mb - 0.00 in0.0 mm 0.06 in1.5 mm
09:30 AM 60.0°F15.6°C 56.5°F13.6°C 88% 9.9 mph NE15.9 kmh NE 18.0 mph29.0 kmh 29.68 in1005.1 mb - 0.00 in0.0 mm 0.06 in1.5 mm
09:20 AM 59.8°F15.4°C 56.2°F13.4°C 88% 15.4 mph ENE24.8 kmh ENE 21.0 mph33.8 kmh 29.68 in1005.1 mb - 0.00 in0.0 mm 0.06 in1.5 mm
09:10 AM 59.6°F15.3°C 56.0°F13.3°C 88% 12.7 mph ENE20.4 kmh ENE 21.0 mph33.8 kmh 29.67 in1004.7 mb - 0.00 in0.0 mm 0.06 in1.5 mm
09:00 AM 59.6°F15.3°C 56.0°F13.3°C 88% 15.6 mph NE25.1 kmh NE 26.0 mph41.8 kmh 29.67 in1004.7 mb - 0.00 in0.0 mm 0.06 in1.5 mm
08:50 AM 59.5°F15.3°C 56.3°F13.5°C 89% 8.2 mph ENE13.2 kmh ENE 10.0 mph16.1 kmh 29.67 in1004.7 mb - 0.00 in0.0 mm 0.06 in1.5 mm
08:40 AM 59.5°F15.3°C 56.3°F13.5°C 89% 12.0 mph NE19.3 kmh NE 18.0 mph29.0 kmh 29.66 in1004.4 mb - 0.00 in0.0 mm 0.06 in1.5 mm
08:30 AM 59.6°F15.3°C 56.0°F13.3°C 88% 9.8 mph NE15.8 kmh NE 18.0 mph29.0 kmh 29.66 in1004.4 mb - 0.00 in0.0 mm 0.06 in1.5 mm
08:20 AM 59.8°F15.4°C 56.6°F13.7°C 89% 11.7 mph ENE18.8 kmh ENE 18.0 mph29.0 kmh 29.65 in1004.1 mb - 0.00 in0.0 mm 0.06 in1.5 mm
08:10 AM 59.7°F15.4°C 56.8°F13.8°C 90% 7.1 mph E11.4 kmh E 11.0 mph17.7 kmh 29.66 in1004.4 mb - 0.00 in0.0 mm 0.06 in1.5 mm
08:00 AM 59.4°F15.2°C 56.5°F13.6°C 90% 9.3 mph E15.0 kmh E 18.0 mph29.0 kmh 29.66 in1004.4 mb - 0.00 in0.0 mm 0.06 in1.5 mm
07:50 AM 59.5°F15.3°C 56.6°F13.7°C 90% 11.7 mph NE18.8 kmh NE 21.0 mph33.8 kmh 29.66 in1004.4 mb - 0.00 in0.0 mm 0.06 in1.5 mm
07:40 AM 59.6°F15.3°C 56.7°F13.7°C 90% 10.9 mph ENE17.5 kmh ENE 16.0 mph25.7 kmh 29.65 in1004.1 mb - 0.00 in0.0 mm 0.06 in1.5 mm
07:30 AM 60.0°F15.6°C 57.0°F13.9°C 90% 12.8 mph NE20.6 kmh NE 27.0 mph43.5 kmh 29.65 in1004.1 mb - 0.00 in0.0 mm 0.06 in1.5 mm
07:20 AM 60.3°F15.7°C 57.4°F14.1°C 90% 9.4 mph NE15.1 kmh NE 17.0 mph27.4 kmh 29.64 in1003.7 mb - 0.00 in0.0 mm 0.06 in1.5 mm
07:10 AM 60.7°F15.9°C 57.4°F14.1°C 89% 8.0 mph ENE12.9 kmh ENE 14.0 mph22.5 kmh 29.63 in1003.4 mb - 0.00 in0.0 mm 0.06 in1.5 mm
07:00 AM 61.1°F16.2°C 57.9°F14.4°C 89% 13.5 mph ENE21.7 kmh ENE 18.0 mph29.0 kmh 29.63 in1003.4 mb - 0.00 in0.0 mm 0.06 in1.5 mm
06:50 AM 61.4°F16.3°C 58.4°F14.7°C 90% 11.2 mph NE18.0 kmh NE 15.0 mph24.1 kmh 29.62 in1003.0 mb - 0.00 in0.0 mm 0.06 in1.5 mm
06:40 AM 61.6°F16.4°C 58.6°F14.8°C 90% 9.5 mph ENE15.3 kmh ENE 22.0 mph35.4 kmh 29.61 in1002.7 mb - 0.00 in0.0 mm 0.06 in1.5 mm
06:30 AM 62.0°F16.7°C 59.0°F15.0°C 90% 11.5 mph ENE18.5 kmh ENE 17.0 mph27.4 kmh 29.61 in1002.7 mb - 0.00 in0.0 mm 0.06 in1.5 mm
06:20 AM 62.6°F17.0°C 59.3°F15.2°C 89% 11.1 mph NE17.9 kmh NE 18.0 mph29.0 kmh 29.61 in1002.7 mb - 0.00 in0.0 mm 0.06 in1.5 mm
06:10 AM 63.2°F17.3°C 60.0°F15.6°C 89% 14.8 mph ENE23.8 kmh ENE 19.0 mph30.6 kmh 29.61 in1002.7 mb - 0.00 in0.0 mm 0.06 in1.5 mm
06:00 AM 64.0°F17.8°C 60.4°F15.8°C 88% 13.3 mph E21.4 kmh E 19.0 mph30.6 kmh 29.60 in1002.4 mb - 0.00 in0.0 mm 0.06 in1.5 mm
05:50 AM 64.8°F18.2°C 60.8°F16.0°C 87% 8.9 mph E14.3 kmh E 11.0 mph17.7 kmh 29.61 in1002.7 mb - 0.00 in0.0 mm 0.06 in1.5 mm
05:40 AM 65.5°F18.6°C 62.2°F16.8°C 89% 7.1 mph ENE11.4 kmh ENE 15.0 mph24.1 kmh 29.61 in1002.7 mb - 0.00 in0.0 mm 0.06 in1.5 mm
05:30 AM 65.9°F18.8°C 62.2°F16.8°C 88% 8.0 mph ENE12.9 kmh ENE 11.0 mph17.7 kmh 29.60 in1002.4 mb - 0.00 in0.0 mm 0.06 in1.5 mm
05:20 AM 66.7°F19.3°C 62.4°F16.9°C 86% 11.6 mph NE18.7 kmh NE 20.0 mph32.2 kmh 29.60 in1002.4 mb - 0.00 in0.0 mm 0.06 in1.5 mm
05:10 AM 67.2°F19.6°C 62.2°F16.8°C 84% 7.7 mph NE12.4 kmh NE 12.0 mph19.3 kmh 29.60 in1002.4 mb - 0.00 in0.0 mm 0.06 in1.5 mm
05:00 AM 67.6°F19.8°C 61.2°F16.2°C 80% 8.7 mph ENE14.0 kmh ENE 11.0 mph17.7 kmh 29.62 in1003.0 mb - 0.00 in0.0 mm 0.06 in1.5 mm
04:50 AM 67.9°F19.9°C 60.5°F15.8°C 77% 4.1 mph NE6.6 kmh NE 15.0 mph24.1 kmh 29.62 in1003.0 mb - 0.00 in0.0 mm 0.06 in1.5 mm
04:40 AM 68.1°F20.1°C 59.5°F15.3°C 74% 8.0 mph E12.9 kmh E 15.0 mph24.1 kmh 29.61 in1002.7 mb - 0.00 in0.0 mm 0.06 in1.5 mm
04:30 AM 68.4°F20.2°C 58.6°F14.8°C 71% 6.8 mph ENE10.9 kmh ENE 12.0 mph19.3 kmh 29.60 in1002.4 mb - 0.00 in0.0 mm 0.06 in1.5 mm
04:20 AM 68.5°F20.3°C 58.7°F14.8°C 71% 9.3 mph ESE15.0 kmh ESE 14.0 mph22.5 kmh 29.59 in1002.0 mb - 0.00 in0.0 mm 0.06 in1.5 mm
04:10 AM 68.8°F20.4°C 60.1°F15.6°C 74% 9.4 mph ESE15.1 kmh ESE 13.0 mph20.9 kmh 29.59 in1002.0 mb - 0.00 in0.0 mm 0.06 in1.5 mm
04:00 AM 68.9°F20.5°C 61.0°F16.1°C 76% 7.3 mph SE11.7 kmh SE 14.0 mph22.5 kmh 29.59 in1002.0 mb - 0.00 in0.0 mm 0.06 in1.5 mm
03:50 AM 68.9°F20.5°C 61.0°F16.1°C 76% 13.8 mph E22.2 kmh E 20.0 mph32.2 kmh 29.59 in1002.0 mb - 0.00 in0.0 mm 0.06 in1.5 mm
03:40 AM 69.1°F20.6°C 61.2°F16.2°C 76% 7.6 mph E12.2 kmh E 13.0 mph20.9 kmh 29.59 in1002.0 mb - 0.00 in0.0 mm 0.06 in1.5 mm
03:30 AM 69.4°F20.8°C 60.8°F16.0°C 74% 13.5 mph ESE21.7 kmh ESE 22.0 mph35.4 kmh 29.60 in1002.4 mb - 0.00 in0.0 mm 0.06 in1.5 mm
03:20 AM 69.1°F20.6°C 59.7°F15.4°C 72% 14.2 mph E22.9 kmh E 19.0 mph30.6 kmh 29.59 in1002.0 mb - 0.00 in0.0 mm 0.06 in1.5 mm
03:10 AM 68.7°F20.4°C 58.9°F14.9°C 71% 12.2 mph SE19.6 kmh SE 14.0 mph22.5 kmh 29.59 in1002.0 mb - 0.00 in0.0 mm 0.06 in1.5 mm
03:00 AM 68.4°F20.2°C 58.2°F14.6°C 70% 9.9 mph E15.9 kmh E 15.0 mph24.1 kmh 29.59 in1002.0 mb - 0.00 in0.0 mm 0.06 in1.5 mm
02:50 AM 68.1°F20.1°C 57.9°F14.4°C 70% 10.7 mph ESE17.2 kmh ESE 18.0 mph29.0 kmh 29.60 in1002.4 mb - 0.00 in0.0 mm 0.06 in1.5 mm
02:40 AM 68.1°F20.1°C 57.9°F14.4°C 70% 6.9 mph E11.1 kmh E 11.0 mph17.7 kmh 29.59 in1002.0 mb - 0.00 in0.0 mm 0.06 in1.5 mm
02:30 AM 68.1°F20.1°C 58.3°F14.6°C 71% 9.7 mph E15.6 kmh E 18.0 mph29.0 kmh 29.59 in1002.0 mb - 0.00 in0.0 mm 0.06 in1.5 mm
02:20 AM 68.3°F20.2°C 58.1°F14.5°C 70% 6.6 mph ENE10.6 kmh ENE 14.0 mph22.5 kmh 29.60 in1002.4 mb - 0.00 in0.0 mm 0.06 in1.5 mm
02:10 AM 67.5°F19.7°C 57.7°F14.3°C 71% 6.5 mph E10.5 kmh E 13.0 mph20.9 kmh 29.61 in1002.7 mb - 0.00 in0.0 mm 0.06 in1.5 mm
02:00 AM 67.6°F19.8°C 60.2°F15.7°C 77% 5.7 mph NNE9.2 kmh NNE 9.0 mph14.5 kmh 29.61 in1002.7 mb - 0.01 in0.3 mm 0.06 in1.5 mm
01:50 AM 68.6°F20.3°C 59.6°F15.3°C 73% 7.1 mph N11.4 kmh N 13.0 mph20.9 kmh 29.62 in1003.0 mb - 0.01 in0.3 mm 0.05 in1.3 mm
01:40 AM 68.2°F20.1°C 60.0°F15.6°C 75% 11.4 mph NNE18.3 kmh NNE 15.0 mph24.1 kmh 29.61 in1002.7 mb - 0.00 in0.0 mm 0.04 in1.0 mm
01:30 AM 68.5°F20.3°C 61.7°F16.5°C 79% 5.4 mph NNE8.7 kmh NNE 9.0 mph14.5 kmh 29.64 in1003.7 mb - 0.01 in0.3 mm 0.04 in1.0 mm
01:20 AM 69.1°F20.6°C 63.0°F17.2°C 81% 1.7 mph NE2.7 kmh NE 9.0 mph14.5 kmh 29.66 in1004.4 mb - 0.00 in0.0 mm 0.03 in0.8 mm
01:10 AM 69.7°F20.9°C 63.9°F17.7°C 82% 6.9 mph NNE11.1 kmh NNE 10.0 mph16.1 kmh 29.64 in1003.7 mb - 0.00 in0.0 mm 0.03 in0.8 mm
01:00 AM 70.3°F21.3°C 62.8°F17.1°C 77% 4.7 mph NE7.6 kmh NE 7.0 mph11.3 kmh 29.63 in1003.4 mb - 0.01 in0.3 mm 0.03 in0.8 mm
12:50 AM 71.2°F21.8°C 63.2°F17.3°C 76% 3.9 mph E6.3 kmh E 6.0 mph9.7 kmh 29.63 in1003.4 mb - 0.01 in0.3 mm 0.02 in0.5 mm
12:40 AM 71.5°F21.9°C 63.2°F17.3°C 75% 0.2 mph E0.3 kmh E -- 29.64 in1003.7 mb - 0.00 in0.0 mm 0.01 in0.3 mm
12:30 AM 71.5°F21.9°C 63.9°F17.7°C 77% 2.2 mph ENE3.5 kmh ENE 4.0 mph6.4 kmh 29.65 in1004.1 mb - 0.01 in0.3 mm 0.01 in0.3 mm
12:20 AM 72.1°F22.3°C 64.8°F18.2°C 78% Calm Calm -- 29.65 in1004.1 mb - 0.00 in0.0 mm 0.00 in0.0 mm
12:10 AM 72.4°F22.4°C 64.8°F18.2°C 77% Calm Calm -- 29.63 in1003.4 mb - 0.00 in0.0 mm 0.00 in0.0 mm
12:00 AM 72.8°F22.7°C 64.8°F18.2°C 76% 0.9 mph NE1.4 kmh NE 3.0 mph4.8 kmh 29.62 in1003.0 mb - 0.00 in0.0 mm 0.00 in0.0 mm